sensor_id;sensor_type;location;lat;lon;timestamp;temperature;humidity
18884;DHT22;9574;47.282;9.640;2023-02-13T00:01:16;1.40;99.90
18884;DHT22;9574;47.282;9.640;2023-02-13T00:03:43;1.40;99.90
18884;DHT22;9574;47.282;9.640;2023-02-13T00:06:10;1.50;99.90
18884;DHT22;9574;47.282;9.640;2023-02-13T00:08:37;1.40;99.90
18884;DHT22;9574;47.282;9.640;2023-02-13T00:11:04;1.30;99.90
18884;DHT22;9574;47.282;9.640;2023-02-13T00:13:32;1.30;99.90
18884;DHT22;9574;47.282;9.640;2023-02-13T00:16:03;1.20;99.90
18884;DHT22;9574;47.282;9.640;2023-02-13T00:18:33;1.20;99.90
18884;DHT22;9574;47.282;9.640;2023-02-13T00:21:02;1.30;99.90
18884;DHT22;9574;47.282;9.640;2023-02-13T00:23:30;1.30;99.90
18884;DHT22;9574;47.282;9.640;2023-02-13T00:25:58;1.30;99.90
18884;DHT22;9574;47.282;9.640;2023-02-13T00:28:25;1.60;99.90
18884;DHT22;9574;47.282;9.640;2023-02-13T00:30:52;1.50;99.90
18884;DHT22;9574;47.282;9.640;2023-02-13T00:33:20;1.60;99.90
18884;DHT22;9574;47.282;9.640;2023-02-13T00:35:47;2.00;99.90
18884;DHT22;9574;47.282;9.640;2023-02-13T00:38:14;1.80;99.90
18884;DHT22;9574;47.282;9.640;2023-02-13T00:40:41;1.50;99.90
18884;DHT22;9574;47.282;9.640;2023-02-13T00:43:08;1.20;99.90
18884;DHT22;9574;47.282;9.640;2023-02-13T00:45:35;1.10;99.90
18884;DHT22;9574;47.282;9.640;2023-02-13T00:48:02;1.10;99.90
18884;DHT22;9574;47.282;9.640;2023-02-13T00:50:31;1.10;99.90
18884;DHT22;9574;47.282;9.640;2023-02-13T00:52:57;1.10;99.90
18884;DHT22;9574;47.282;9.640;2023-02-13T00:55:24;0.90;99.90
18884;DHT22;9574;47.282;9.640;2023-02-13T00:57:51;0.90;99.90
18884;DHT22;9574;47.282;9.640;2023-02-13T01:00:19;0.80;99.90
18884;DHT22;9574;47.282;9.640;2023-02-13T01:02:46;0.80;99.90
18884;DHT22;9574;47.282;9.640;2023-02-13T01:05:13;0.70;99.90
18884;DHT22;9574;47.282;9.640;2023-02-13T01:07:41;0.70;99.90
18884;DHT22;9574;47.282;9.640;2023-02-13T01:10:09;0.70;99.90
18884;DHT22;9574;47.282;9.640;2023-02-13T01:12:36;0.80;99.90
18884;DHT22;9574;47.282;9.640;2023-02-13T01:15:04;0.70;99.90
18884;DHT22;9574;47.282;9.640;2023-02-13T01:17:31;0.80;99.90
18884;DHT22;9574;47.282;9.640;2023-02-13T01:19:58;0.80;99.90
18884;DHT22;9574;47.282;9.640;2023-02-13T01:22:25;0.70;99.90
18884;DHT22;9574;47.282;9.640;2023-02-13T01:24:53;0.70;99.90
18884;DHT22;9574;47.282;9.640;2023-02-13T01:27:20;0.70;99.90
18884;DHT22;9574;47.282;9.640;2023-02-13T01:29:48;0.70;99.90
18884;DHT22;9574;47.282;9.640;2023-02-13T01:32:15;0.70;99.90
18884;DHT22;9574;47.282;9.640;2023-02-13T01:34:42;0.60;99.90
18884;DHT22;9574;47.282;9.640;2023-02-13T01:37:09;0.60;99.90
18884;DHT22;9574;47.282;9.640;2023-02-13T01:39:35;0.50;99.90
18884;DHT22;9574;47.282;9.640;2023-02-13T01:42:05;0.50;99.90
18884;DHT22;9574;47.282;9.640;2023-02-13T01:44:49;0.50;99.90
18884;DHT22;9574;47.282;9.640;2023-02-13T01:47:23;0.40;99.90
18884;DHT22;9574;47.282;9.640;2023-02-13T01:49:56;0.50;99.90
18884;DHT22;9574;47.282;9.640;2023-02-13T01:52:24;0.60;99.90
18884;DHT22;9574;47.282;9.640;2023-02-13T01:54:51;0.50;99.90
18884;DHT22;9574;47.282;9.640;2023-02-13T01:57:22;0.50;99.90
18884;DHT22;9574;47.282;9.640;2023-02-13T01:59:55;0.50;99.90
18884;DHT22;9574;47.282;9.640;2023-02-13T02:02:23;0.50;99.90
18884;DHT22;9574;47.282;9.640;2023-02-13T02:04:51;0.40;99.90
18884;DHT22;9574;47.282;9.640;2023-02-13T02:07:21;0.40;99.90
18884;DHT22;9574;47.282;9.640;2023-02-13T02:09:52;0.40;99.90
18884;DHT22;9574;47.282;9.640;2023-02-13T02:12:24;0.30;99.90
18884;DHT22;9574;47.282;9.640;2023-02-13T02:14:53;0.40;99.90
18884;DHT22;9574;47.282;9.640;2023-02-13T02:17:21;0.40;99.90
18884;DHT22;9574;47.282;9.640;2023-02-13T02:19:57;0.30;99.90
18884;DHT22;9574;47.282;9.640;2023-02-13T02:22:45;0.20;99.90
18884;DHT22;9574;47.282;9.640;2023-02-13T02:25:29;0.20;99.90
18884;DHT22;9574;47.282;9.640;2023-02-13T02:34:17;0.20;99.90
18884;DHT22;9574;47.282;9.640;2023-02-13T02:37:04;0.20;99.90
18884;DHT22;9574;47.282;9.640;2023-02-13T02:39:45;0.10;99.90
18884;DHT22;9574;47.282;9.640;2023-02-13T02:42:21;0.30;99.90
18884;DHT22;9574;47.282;9.640;2023-02-13T02:44:56;0.50;99.90
18884;DHT22;9574;47.282;9.640;2023-02-13T02:47:31;0.40;99.90
18884;DHT22;9574;47.282;9.640;2023-02-13T02:50:30;0.20;99.90
18884;DHT22;9574;47.282;9.640;2023-02-13T02:53:06;0.20;99.90
18884;DHT22;9574;47.282;9.640;2023-02-13T02:55:40;0.10;99.90
18884;DHT22;9574;47.282;9.640;2023-02-13T02:58:13;0.20;99.90
18884;DHT22;9574;47.282;9.640;2023-02-13T03:01:00;0.00;99.90
18884;DHT22;9574;47.282;9.640;2023-02-13T03:03:46;-0.10;99.90
18884;DHT22;9574;47.282;9.640;2023-02-13T03:06:36;-0.10;99.90
18884;DHT22;9574;47.282;9.640;2023-02-13T03:09:10;0.30;99.90
18884;DHT22;9574;47.282;9.640;2023-02-13T03:11:57;0.30;99.90
18884;DHT22;9574;47.282;9.640;2023-02-13T03:14:42;0.20;99.90
18884;DHT22;9574;47.282;9.640;2023-02-13T03:17:11;0.20;99.90
18884;DHT22;9574;47.282;9.640;2023-02-13T03:20:11;0.10;99.90
18884;DHT22;9574;47.282;9.640;2023-02-13T03:23:06;0.00;99.90
18884;DHT22;9574;47.282;9.640;2023-02-13T03:25:51;0.00;99.90
18884;DHT22;9574;47.282;9.640;2023-02-13T03:28:26;0.00;99.90
18884;DHT22;9574;47.282;9.640;2023-02-13T03:31:16;0.10;99.90
18884;DHT22;9574;47.282;9.640;2023-02-13T03:33:56;0.20;99.90
18884;DHT22;9574;47.282;9.640;2023-02-13T03:36:37;0.20;99.90
18884;DHT22;9574;47.282;9.640;2023-02-13T03:39:34;0.10;99.90
18884;DHT22;9574;47.282;9.640;2023-02-13T03:42:07;0.20;99.90
18884;DHT22;9574;47.282;9.640;2023-02-13T03:44:40;0.20;99.90
18884;DHT22;9574;47.282;9.640;2023-02-13T03:47:09;0.10;99.90
18884;DHT22;9574;47.282;9.640;2023-02-13T03:49:39;0.10;99.90
18884;DHT22;9574;47.282;9.640;2023-02-13T03:52:28;0.10;99.90
18884;DHT22;9574;47.282;9.640;2023-02-13T03:55:00;-0.10;99.90
18884;DHT22;9574;47.282;9.640;2023-02-13T03:57:46;0.10;99.90
18884;DHT22;9574;47.282;9.640;2023-02-13T04:00:34;0.00;99.90
18884;DHT22;9574;47.282;9.640;2023-02-13T04:03:10;0.10;99.90
18884;DHT22;9574;47.282;9.640;2023-02-13T04:05:42;0.10;99.90
18884;DHT22;9574;47.282;9.640;2023-02-13T04:08:10;0.20;99.90
18884;DHT22;9574;47.282;9.640;2023-02-13T04:10:45;0.20;99.90
18884;DHT22;9574;47.282;9.640;2023-02-13T04:13:18;0.20;99.90
18884;DHT22;9574;47.282;9.640;2023-02-13T04:15:52;0.30;99.90
18884;DHT22;9574;47.282;9.640;2023-02-13T04:18:22;0.30;99.90
18884;DHT22;9574;47.282;9.640;2023-02-13T04:20:50;0.40;99.90
18884;DHT22;9574;47.282;9.640;2023-02-13T04:23:18;0.50;99.90
18884;DHT22;9574;47.282;9.640;2023-02-13T04:25:50;0.40;99.90
18884;DHT22;9574;47.282;9.640;2023-02-13T04:28:18;0.50;99.90
18884;DHT22;9574;47.282;9.640;2023-02-13T04:30:45;0.60;99.90
18884;DHT22;9574;47.282;9.640;2023-02-13T04:33:11;0.60;99.90
18884;DHT22;9574;47.282;9.640;2023-02-13T04:35:38;0.70;99.90
18884;DHT22;9574;47.282;9.640;2023-02-13T04:38:05;0.80;99.90
18884;DHT22;9574;47.282;9.640;2023-02-13T04:40:32;0.90;99.90
18884;DHT22;9574;47.282;9.640;2023-02-13T04:43:01;1.00;99.90
18884;DHT22;9574;47.282;9.640;2023-02-13T04:45:28;1.10;99.90
18884;DHT22;9574;47.282;9.640;2023-02-13T04:47:56;1.00;99.90
18884;DHT22;9574;47.282;9.640;2023-02-13T04:50:23;1.00;99.90
18884;DHT22;9574;47.282;9.640;2023-02-13T04:52:52;1.00;99.90
18884;DHT22;9574;47.282;9.640;2023-02-13T04:55:20;1.00;99.90
18884;DHT22;9574;47.282;9.640;2023-02-13T04:57:47;1.00;99.90
18884;DHT22;9574;47.282;9.640;2023-02-13T05:00:16;1.00;99.90
18884;DHT22;9574;47.282;9.640;2023-02-13T05:02:44;1.00;99.90
18884;DHT22;9574;47.282;9.640;2023-02-13T05:05:10;1.00;99.90
18884;DHT22;9574;47.282;9.640;2023-02-13T05:07:37;1.10;99.90
18884;DHT22;9574;47.282;9.640;2023-02-13T05:10:05;1.10;99.90
18884;DHT22;9574;47.282;9.640;2023-02-13T05:12:32;1.20;99.90
18884;DHT22;9574;47.282;9.640;2023-02-13T05:14:59;1.20;99.90
18884;DHT22;9574;47.282;9.640;2023-02-13T05:17:28;1.30;99.90
18884;DHT22;9574;47.282;9.640;2023-02-13T05:19:55;1.30;99.90
18884;DHT22;9574;47.282;9.640;2023-02-13T05:22:22;1.20;99.90
18884;DHT22;9574;47.282;9.640;2023-02-13T05:25:06;1.30;99.90
18884;DHT22;9574;47.282;9.640;2023-02-13T05:27:33;1.60;99.90
18884;DHT22;9574;47.282;9.640;2023-02-13T05:30:00;1.50;99.90
18884;DHT22;9574;47.282;9.640;2023-02-13T05:32:28;1.50;99.90
18884;DHT22;9574;47.282;9.640;2023-02-13T05:34:55;1.60;99.90
18884;DHT22;9574;47.282;9.640;2023-02-13T05:37:22;1.80;99.90
18884;DHT22;9574;47.282;9.640;2023-02-13T05:39:49;1.80;99.90
18884;DHT22;9574;47.282;9.640;2023-02-13T05:42:16;1.70;99.90
18884;DHT22;9574;47.282;9.640;2023-02-13T05:44:43;1.70;99.90
18884;DHT22;9574;47.282;9.640;2023-02-13T05:47:09;1.60;99.90
18884;DHT22;9574;47.282;9.640;2023-02-13T05:49:38;1.40;99.90
18884;DHT22;9574;47.282;9.640;2023-02-13T05:52:05;1.30;99.90
18884;DHT22;9574;47.282;9.640;2023-02-13T05:54:32;1.10;99.90
18884;DHT22;9574;47.282;9.640;2023-02-13T05:56:59;1.20;99.90
18884;DHT22;9574;47.282;9.640;2023-02-13T05:59:26;1.40;99.90
18884;DHT22;9574;47.282;9.640;2023-02-13T06:01:53;1.80;99.90
18884;DHT22;9574;47.282;9.640;2023-02-13T06:04:20;2.00;99.90
18884;DHT22;9574;47.282;9.640;2023-02-13T06:06:48;2.00;99.90
18884;DHT22;9574;47.282;9.640;2023-02-13T06:09:15;1.60;99.90
18884;DHT22;9574;47.282;9.640;2023-02-13T06:11:42;1.60;99.90
18884;DHT22;9574;47.282;9.640;2023-02-13T06:14:10;1.60;99.90
18884;DHT22;9574;47.282;9.640;2023-02-13T06:16:38;1.80;99.90
18884;DHT22;9574;47.282;9.640;2023-02-13T06:19:05;1.90;99.90
18884;DHT22;9574;47.282;9.640;2023-02-13T06:21:32;2.00;99.90
18884;DHT22;9574;47.282;9.640;2023-02-13T06:24:04;2.10;99.90
18884;DHT22;9574;47.282;9.640;2023-02-13T06:26:31;2.00;99.90
18884;DHT22;9574;47.282;9.640;2023-02-13T06:28:58;1.60;99.90
18884;DHT22;9574;47.282;9.640;2023-02-13T06:31:26;1.20;99.90
18884;DHT22;9574;47.282;9.640;2023-02-13T06:33:53;0.90;99.90
18884;DHT22;9574;47.282;9.640;2023-02-13T06:36:23;0.70;99.90
18884;DHT22;9574;47.282;9.640;2023-02-13T06:38:53;0.50;99.90
18884;DHT22;9574;47.282;9.640;2023-02-13T06:41:26;0.40;99.90
18884;DHT22;9574;47.282;9.640;2023-02-13T06:43:53;0.40;99.90
18884;DHT22;9574;47.282;9.640;2023-02-13T06:46:20;0.30;99.90
18884;DHT22;9574;47.282;9.640;2023-02-13T06:48:47;0.30;99.90
18884;DHT22;9574;47.282;9.640;2023-02-13T06:51:14;0.30;99.90
18884;DHT22;9574;47.282;9.640;2023-02-13T06:53:41;0.40;99.90
18884;DHT22;9574;47.282;9.640;2023-02-13T06:56:08;0.40;99.90
18884;DHT22;9574;47.282;9.640;2023-02-13T06:58:37;0.40;99.90
18884;DHT22;9574;47.282;9.640;2023-02-13T07:01:05;0.30;99.90
18884;DHT22;9574;47.282;9.640;2023-02-13T07:03:35;0.20;99.90
18884;DHT22;9574;47.282;9.640;2023-02-13T07:06:02;0.20;99.90
18884;DHT22;9574;47.282;9.640;2023-02-13T07:08:29;0.20;99.90
18884;DHT22;9574;47.282;9.640;2023-02-13T07:10:56;0.20;99.90
18884;DHT22;9574;47.282;9.640;2023-02-13T07:13:23;0.30;99.90
18884;DHT22;9574;47.282;9.640;2023-02-13T07:15:51;0.30;99.90
18884;DHT22;9574;47.282;9.640;2023-02-13T07:18:18;0.40;99.90
18884;DHT22;9574;47.282;9.640;2023-02-13T07:20:45;0.40;99.90
18884;DHT22;9574;47.282;9.640;2023-02-13T07:23:12;0.40;99.90
18884;DHT22;9574;47.282;9.640;2023-02-13T07:25:39;0.30;99.90
18884;DHT22;9574;47.282;9.640;2023-02-13T07:28:06;0.30;99.90
18884;DHT22;9574;47.282;9.640;2023-02-13T07:30:33;0.30;99.90
18884;DHT22;9574;47.282;9.640;2023-02-13T07:33:03;0.30;99.90
18884;DHT22;9574;47.282;9.640;2023-02-13T07:35:31;0.40;99.90
18884;DHT22;9574;47.282;9.640;2023-02-13T07:37:58;0.50;99.90
18884;DHT22;9574;47.282;9.640;2023-02-13T07:40:25;0.50;99.90
18884;DHT22;9574;47.282;9.640;2023-02-13T07:42:52;0.50;99.90
18884;DHT22;9574;47.282;9.640;2023-02-13T07:45:19;0.60;99.90
18884;DHT22;9574;47.282;9.640;2023-02-13T07:47:46;0.70;99.90
18884;DHT22;9574;47.282;9.640;2023-02-13T07:50:15;0.80;99.90
18884;DHT22;9574;47.282;9.640;2023-02-13T07:52:42;1.10;99.90
18884;DHT22;9574;47.282;9.640;2023-02-13T07:55:09;1.40;99.90
18884;DHT22;9574;47.282;9.640;2023-02-13T07:57:37;1.60;99.90
18884;DHT22;9574;47.282;9.640;2023-02-13T08:00:05;1.60;99.90
18884;DHT22;9574;47.282;9.640;2023-02-13T08:02:32;1.90;99.90
18884;DHT22;9574;47.282;9.640;2023-02-13T08:04:59;2.20;99.90
18884;DHT22;9574;47.282;9.640;2023-02-13T08:07:27;2.40;99.90
18884;DHT22;9574;47.282;9.640;2023-02-13T08:09:54;2.50;99.90
18884;DHT22;9574;47.282;9.640;2023-02-13T08:12:39;2.40;99.90
18884;DHT22;9574;47.282;9.640;2023-02-13T08:15:08;2.50;99.90
18884;DHT22;9574;47.282;9.640;2023-02-13T08:17:35;2.60;99.90
18884;DHT22;9574;47.282;9.640;2023-02-13T08:20:02;2.40;99.90
18884;DHT22;9574;47.282;9.640;2023-02-13T08:22:33;2.10;99.90
18884;DHT22;9574;47.282;9.640;2023-02-13T08:25:00;2.20;99.90
18884;DHT22;9574;47.282;9.640;2023-02-13T08:27:28;2.20;99.90
18884;DHT22;9574;47.282;9.640;2023-02-13T08:29:56;2.50;99.90
18884;DHT22;9574;47.282;9.640;2023-02-13T08:32:23;2.60;99.90
18884;DHT22;9574;47.282;9.640;2023-02-13T08:34:51;2.70;99.90
18884;DHT22;9574;47.282;9.640;2023-02-13T08:37:38;2.90;99.90
18884;DHT22;9574;47.282;9.640;2023-02-13T08:40:06;2.90;99.90
18884;DHT22;9574;47.282;9.640;2023-02-13T08:42:35;2.90;99.90
18884;DHT22;9574;47.282;9.640;2023-02-13T08:45:02;3.00;99.90
18884;DHT22;9574;47.282;9.640;2023-02-13T08:47:29;2.90;99.90
18884;DHT22;9574;47.282;9.640;2023-02-13T08:49:56;3.00;99.90
18884;DHT22;9574;47.282;9.640;2023-02-13T08:52:23;3.00;99.90
18884;DHT22;9574;47.282;9.640;2023-02-13T08:54:51;2.90;99.90
18884;DHT22;9574;47.282;9.640;2023-02-13T08:57:18;2.90;99.90
18884;DHT22;9574;47.282;9.640;2023-02-13T08:59:45;2.90;99.90
18884;DHT22;9574;47.282;9.640;2023-02-13T09:02:12;3.00;99.90
18884;DHT22;9574;47.282;9.640;2023-02-13T09:04:39;3.10;99.90
18884;DHT22;9574;47.282;9.640;2023-02-13T09:07:07;3.10;99.90
18884;DHT22;9574;47.282;9.640;2023-02-13T09:09:33;3.10;99.90
18884;DHT22;9574;47.282;9.640;2023-02-13T09:12:02;3.20;99.90
18884;DHT22;9574;47.282;9.640;2023-02-13T09:14:29;3.30;99.90
18884;DHT22;9574;47.282;9.640;2023-02-13T09:16:56;3.30;99.90
18884;DHT22;9574;47.282;9.640;2023-02-13T09:19:23;3.20;99.90
18884;DHT22;9574;47.282;9.640;2023-02-13T09:21:50;2.90;99.90
18884;DHT22;9574;47.282;9.640;2023-02-13T09:24:17;2.60;99.90
18884;DHT22;9574;47.282;9.640;2023-02-13T09:26:44;2.40;99.90
18884;DHT22;9574;47.282;9.640;2023-02-13T09:29:12;2.70;99.90
18884;DHT22;9574;47.282;9.640;2023-02-13T09:31:39;3.00;99.90
18884;DHT22;9574;47.282;9.640;2023-02-13T09:34:06;2.90;99.90
18884;DHT22;9574;47.282;9.640;2023-02-13T09:36:33;2.70;99.90
18884;DHT22;9574;47.282;9.640;2023-02-13T09:39:01;2.90;99.90
18884;DHT22;9574;47.282;9.640;2023-02-13T09:41:30;2.90;99.90
18884;DHT22;9574;47.282;9.640;2023-02-13T09:44:00;3.20;99.90
18884;DHT22;9574;47.282;9.640;2023-02-13T09:46:33;3.30;99.90
18884;DHT22;9574;47.282;9.640;2023-02-13T09:49:03;3.50;99.90
18884;DHT22;9574;47.282;9.640;2023-02-13T09:51:32;3.40;99.90
18884;DHT22;9574;47.282;9.640;2023-02-13T09:54:01;3.60;99.90
18884;DHT22;9574;47.282;9.640;2023-02-13T09:56:38;3.80;99.90
18884;DHT22;9574;47.282;9.640;2023-02-13T09:59:19;3.70;99.90
18884;DHT22;9574;47.282;9.640;2023-02-13T10:01:54;3.80;99.90
18884;DHT22;9574;47.282;9.640;2023-02-13T10:04:28;3.90;99.90
18884;DHT22;9574;47.282;9.640;2023-02-13T10:07:08;3.80;99.90
18884;DHT22;9574;47.282;9.640;2023-02-13T10:09:45;4.00;99.90
18884;DHT22;9574;47.282;9.640;2023-02-13T10:12:26;3.70;99.90
18884;DHT22;9574;47.282;9.640;2023-02-13T10:15:04;3.40;99.90
18884;DHT22;9574;47.282;9.640;2023-02-13T10:17:39;3.40;99.90
18884;DHT22;9574;47.282;9.640;2023-02-13T10:20:18;3.80;99.90
18884;DHT22;9574;47.282;9.640;2023-02-13T10:22:53;3.80;99.90
18884;DHT22;9574;47.282;9.640;2023-02-13T10:25:24;3.90;99.90
18884;DHT22;9574;47.282;9.640;2023-02-13T10:28:09;4.10;99.90
18884;DHT22;9574;47.282;9.640;2023-02-13T10:30:45;4.40;99.90
18884;DHT22;9574;47.282;9.640;2023-02-13T10:33:18;4.50;99.90
18884;DHT22;9574;47.282;9.640;2023-02-13T10:35:50;4.70;99.90
18884;DHT22;9574;47.282;9.640;2023-02-13T10:38:20;4.40;99.90
18884;DHT22;9574;47.282;9.640;2023-02-13T10:43:47;4.40;99.90
18884;DHT22;9574;47.282;9.640;2023-02-13T10:46:23;4.60;99.90
18884;DHT22;9574;47.282;9.640;2023-02-13T10:49:13;4.80;99.90
18884;DHT22;9574;47.282;9.640;2023-02-13T10:51:50;5.10;99.90
18884;DHT22;9574;47.282;9.640;2023-02-13T10:54:30;5.20;99.90
18884;DHT22;9574;47.282;9.640;2023-02-13T10:57:07;5.40;99.90
18884;DHT22;9574;47.282;9.640;2023-02-13T10:59:50;5.50;99.90
18884;DHT22;9574;47.282;9.640;2023-02-13T11:02:24;5.70;99.90
18884;DHT22;9574;47.282;9.640;2023-02-13T11:04:57;5.90;99.90
18884;DHT22;9574;47.282;9.640;2023-02-13T11:07:26;6.20;99.90
18884;DHT22;9574;47.282;9.640;2023-02-13T11:09:57;6.90;99.90
18884;DHT22;9574;47.282;9.640;2023-02-13T11:12:28;7.60;99.90
18884;DHT22;9574;47.282;9.640;2023-02-13T11:14:57;8.20;99.90
18884;DHT22;9574;47.282;9.640;2023-02-13T11:17:26;8.80;99.90
18884;DHT22;9574;47.282;9.640;2023-02-13T11:19:56;9.20;99.90
18884;DHT22;9574;47.282;9.640;2023-02-13T11:22:29;9.50;99.90
18884;DHT22;9574;47.282;9.640;2023-02-13T11:24:58;9.60;99.90
18884;DHT22;9574;47.282;9.640;2023-02-13T11:27:29;9.60;99.90
18884;DHT22;9574;47.282;9.640;2023-02-13T11:29:59;9.70;99.90
18884;DHT22;9574;47.282;9.640;2023-02-13T11:32:28;9.70;99.90
18884;DHT22;9574;47.282;9.640;2023-02-13T11:34:57;9.70;99.90
18884;DHT22;9574;47.282;9.640;2023-02-13T11:37:42;10.00;99.90
18884;DHT22;9574;47.282;9.640;2023-02-13T11:40:28;10.20;99.90
18884;DHT22;9574;47.282;9.640;2023-02-13T11:42:56;10.50;99.90
18884;DHT22;9574;47.282;9.640;2023-02-13T11:45:42;10.60;99.90
18884;DHT22;9574;47.282;9.640;2023-02-13T11:48:23;10.70;99.90
18884;DHT22;9574;47.282;9.640;2023-02-13T11:54:28;10.70;99.90
18884;DHT22;9574;47.282;9.640;2023-02-13T11:57:19;10.80;99.90
18884;DHT22;9574;47.282;9.640;2023-02-13T11:59:51;10.90;99.90
18884;DHT22;9574;47.282;9.640;2023-02-13T12:02:23;10.90;99.90
18884;DHT22;9574;47.282;9.640;2023-02-13T12:04:52;11.10;99.90
18884;DHT22;9574;47.282;9.640;2023-02-13T12:07:23;11.20;99.90
18884;DHT22;9574;47.282;9.640;2023-02-13T12:09:56;11.30;99.90
18884;DHT22;9574;47.282;9.640;2023-02-13T12:12:32;11.50;99.90
18884;DHT22;9574;47.282;9.640;2023-02-13T12:15:04;11.30;99.90
18884;DHT22;9574;47.282;9.640;2023-02-13T12:17:40;11.50;99.90
18884;DHT22;9574;47.282;9.640;2023-02-13T12:20:12;11.50;99.90
18884;DHT22;9574;47.282;9.640;2023-02-13T12:22:52;11.50;99.90
18884;DHT22;9574;47.282;9.640;2023-02-13T12:25:42;11.60;99.90
18884;DHT22;9574;47.282;9.640;2023-02-13T12:28:12;11.50;99.90
18884;DHT22;9574;47.282;9.640;2023-02-13T12:31:06;11.60;99.90
18884;DHT22;9574;47.282;9.640;2023-02-13T12:36:49;11.50;99.90
18884;DHT22;9574;47.282;9.640;2023-02-13T12:39:25;11.00;99.90
18884;DHT22;9574;47.282;9.640;2023-02-13T12:42:15;11.30;99.90
18884;DHT22;9574;47.282;9.640;2023-02-13T12:45:04;11.50;99.90
18884;DHT22;9574;47.282;9.640;2023-02-13T12:47:39;11.70;99.90
18884;DHT22;9574;47.282;9.640;2023-02-13T12:50:27;12.00;99.90
18884;DHT22;9574;47.282;9.640;2023-02-13T12:53:06;12.30;99.90
18884;DHT22;9574;47.282;9.640;2023-02-13T12:58:53;12.40;99.90
18884;DHT22;9574;47.282;9.640;2023-02-13T13:01:31;12.60;99.90
18884;DHT22;9574;47.282;9.640;2023-02-13T13:04:12;12.60;99.90
18884;DHT22;9574;47.282;9.640;2023-02-13T13:06:56;12.60;99.90
18884;DHT22;9574;47.282;9.640;2023-02-13T13:12:36;12.50;99.90
18884;DHT22;9574;47.282;9.640;2023-02-13T13:15:10;12.70;99.90
18884;DHT22;9574;47.282;9.640;2023-02-13T13:17:47;12.60;99.90
18884;DHT22;9574;47.282;9.640;2023-02-13T13:20:35;12.60;99.90
18884;DHT22;9574;47.282;9.640;2023-02-13T13:23:07;12.70;99.90
18884;DHT22;9574;47.282;9.640;2023-02-13T13:25:45;12.70;99.90
18884;DHT22;9574;47.282;9.640;2023-02-13T13:28:16;12.70;99.90
18884;DHT22;9574;47.282;9.640;2023-02-13T13:30:45;12.80;99.90
18884;DHT22;9574;47.282;9.640;2023-02-13T13:33:15;12.80;99.90
18884;DHT22;9574;47.282;9.640;2023-02-13T13:35:46;12.90;99.90
18884;DHT22;9574;47.282;9.640;2023-02-13T13:38:21;13.00;99.90
18884;DHT22;9574;47.282;9.640;2023-02-13T13:40:55;13.10;99.90
18884;DHT22;9574;47.282;9.640;2023-02-13T13:43:30;13.10;99.90
18884;DHT22;9574;47.282;9.640;2023-02-13T13:46:05;13.10;99.90
18884;DHT22;9574;47.282;9.640;2023-02-13T13:48:53;12.90;99.90
18884;DHT22;9574;47.282;9.640;2023-02-13T13:51:21;12.70;99.90
18884;DHT22;9574;47.282;9.640;2023-02-13T13:54:17;12.60;99.90
18884;DHT22;9574;47.282;9.640;2023-02-13T13:57:05;12.50;99.90
18884;DHT22;9574;47.282;9.640;2023-02-13T14:02:48;12.70;99.90
18884;DHT22;9574;47.282;9.640;2023-02-13T14:05:24;12.60;99.90
18884;DHT22;9574;47.282;9.640;2023-02-13T14:07:53;12.30;99.90
18884;DHT22;9574;47.282;9.640;2023-02-13T14:10:59;12.30;99.90
18884;DHT22;9574;47.282;9.640;2023-02-13T14:13:32;12.30;99.90
18884;DHT22;9574;47.282;9.640;2023-02-13T14:15:59;12.30;99.90
18884;DHT22;9574;47.282;9.640;2023-02-13T14:18:29;12.30;99.90
18884;DHT22;9574;47.282;9.640;2023-02-13T14:20:58;12.30;99.90
18884;DHT22;9574;47.282;9.640;2023-02-13T14:23:36;12.30;99.90
18884;DHT22;9574;47.282;9.640;2023-02-13T14:26:17;12.40;99.90
18884;DHT22;9574;47.282;9.640;2023-02-13T14:28:56;12.30;99.90
18884;DHT22;9574;47.282;9.640;2023-02-13T14:31:26;12.20;99.90
18884;DHT22;9574;47.282;9.640;2023-02-13T14:33:57;12.10;99.90
18884;DHT22;9574;47.282;9.640;2023-02-13T14:36:28;12.00;99.90
18884;DHT22;9574;47.282;9.640;2023-02-13T14:39:00;12.00;99.90
18884;DHT22;9574;47.282;9.640;2023-02-13T14:41:43;12.00;99.90
18884;DHT22;9574;47.282;9.640;2023-02-13T14:44:16;11.90;99.90
18884;DHT22;9574;47.282;9.640;2023-02-13T14:46:46;11.70;99.90
18884;DHT22;9574;47.282;9.640;2023-02-13T14:49:18;11.60;99.90
18884;DHT22;9574;47.282;9.640;2023-02-13T14:51:49;11.50;99.90
18884;DHT22;9574;47.282;9.640;2023-02-13T14:54:23;11.40;99.90
18884;DHT22;9574;47.282;9.640;2023-02-13T14:59:39;11.40;99.90
18884;DHT22;9574;47.282;9.640;2023-02-13T15:02:16;11.40;99.90
18884;DHT22;9574;47.282;9.640;2023-02-13T15:04:47;11.30;99.90
18884;DHT22;9574;47.282;9.640;2023-02-13T15:07:18;11.20;99.90
18884;DHT22;9574;47.282;9.640;2023-02-13T15:09:49;11.10;99.90
18884;DHT22;9574;47.282;9.640;2023-02-13T15:12:26;11.00;99.90
18884;DHT22;9574;47.282;9.640;2023-02-13T15:14:53;11.00;99.90
18884;DHT22;9574;47.282;9.640;2023-02-13T15:17:23;11.10;99.90
18884;DHT22;9574;47.282;9.640;2023-02-13T15:19:53;11.20;99.90
18884;DHT22;9574;47.282;9.640;2023-02-13T15:22:28;11.20;99.90
18884;DHT22;9574;47.282;9.640;2023-02-13T15:24:56;11.30;99.90
18884;DHT22;9574;47.282;9.640;2023-02-13T15:27:25;11.30;99.90
18884;DHT22;9574;47.282;9.640;2023-02-13T15:29:55;11.30;99.90
18884;DHT22;9574;47.282;9.640;2023-02-13T15:32:26;11.20;99.90
18884;DHT22;9574;47.282;9.640;2023-02-13T15:34:55;11.10;99.90
18884;DHT22;9574;47.282;9.640;2023-02-13T15:37:23;11.00;99.90
18884;DHT22;9574;47.282;9.640;2023-02-13T15:39:53;11.00;99.90
18884;DHT22;9574;47.282;9.640;2023-02-13T15:42:20;10.90;99.90
18884;DHT22;9574;47.282;9.640;2023-02-13T15:44:49;10.80;99.90
18884;DHT22;9574;47.282;9.640;2023-02-13T15:47:22;10.80;99.90
18884;DHT22;9574;47.282;9.640;2023-02-13T15:49:51;10.60;99.90
18884;DHT22;9574;47.282;9.640;2023-02-13T15:52:30;10.40;99.90
18884;DHT22;9574;47.282;9.640;2023-02-13T15:54:58;10.30;99.90
18884;DHT22;9574;47.282;9.640;2023-02-13T15:57:25;10.10;99.90
18884;DHT22;9574;47.282;9.640;2023-02-13T15:59:54;9.80;99.90
18884;DHT22;9574;47.282;9.640;2023-02-13T16:02:24;9.70;99.90
18884;DHT22;9574;47.282;9.640;2023-02-13T16:04:54;9.40;99.90
18884;DHT22;9574;47.282;9.640;2023-02-13T16:07:23;9.20;99.90
18884;DHT22;9574;47.282;9.640;2023-02-13T16:09:50;9.00;99.90
18884;DHT22;9574;47.282;9.640;2023-02-13T16:12:20;8.80;99.90
18884;DHT22;9574;47.282;9.640;2023-02-13T16:14:51;8.70;99.90
18884;DHT22;9574;47.282;9.640;2023-02-13T16:17:26;8.60;99.90
18884;DHT22;9574;47.282;9.640;2023-02-13T16:19:57;8.50;99.90
18884;DHT22;9574;47.282;9.640;2023-02-13T16:22:31;8.40;99.90
18884;DHT22;9574;47.282;9.640;2023-02-13T16:25:13;8.40;99.90
18884;DHT22;9574;47.282;9.640;2023-02-13T16:27:43;8.30;99.90
18884;DHT22;9574;47.282;9.640;2023-02-13T16:30:29;8.20;99.90
18884;DHT22;9574;47.282;9.640;2023-02-13T16:33:26;8.20;99.90
18884;DHT22;9574;47.282;9.640;2023-02-13T16:35:55;8.10;99.90
18884;DHT22;9574;47.282;9.640;2023-02-13T16:38:30;8.10;99.90
18884;DHT22;9574;47.282;9.640;2023-02-13T16:40:58;8.10;99.90
18884;DHT22;9574;47.282;9.640;2023-02-13T16:46:25;8.00;99.90
18884;DHT22;9574;47.282;9.640;2023-02-13T16:52:06;7.90;99.90
18884;DHT22;9574;47.282;9.640;2023-02-13T16:54:46;7.80;99.90
18884;DHT22;9574;47.282;9.640;2023-02-13T16:57:20;7.80;99.90
18884;DHT22;9574;47.282;9.640;2023-02-13T16:59:58;7.70;99.90
18884;DHT22;9574;47.282;9.640;2023-02-13T17:02:28;7.70;99.90